2A7 weather

Department of Transportation Heliport
Columbus, Ohio, United States

Public forecast

Using degrees Fahrenheit for public forecast. Weather courtesy of forecast.io.

Closest aviation weather report (METAR) to Department of Transportation Heliport

Closest report is Bolton Field, 5.5 nm (10.3 km) SW. Retrieved 2020/05/26 05:15 UTC (0 seconds ago):

KTZR 260515Z AUTO 00000KT 10SM CLR 20/18 A3008 RMK AO2 T01950182

Closest aviation forecast (TAF) to Department of Transportation Heliport

Closest forecast is John Glenn Columbus International Airport, 7.4 nm (13.6 km) ENE. Retrieved 2020-05-26 00:30 UTC (5 hours ago):

TAF KCMH 252329Z 2600/2624 16006KT P6SM SCT120 BKN250 FM260300 15003KT P6SM SCT250 FM261200 16004KT P6SM SCT070 BKN120 FM261500 15006KT P6SM SCT045